createdAt,value
2018-03-29T00:02:22.615Z,8.90
2018-03-29T00:04:50.074Z,8.90
2018-03-29T00:07:17.518Z,8.90
2018-03-29T00:09:44.979Z,8.80
2018-03-29T00:12:12.437Z,8.80
2018-03-29T00:14:40.066Z,8.80
2018-03-29T00:17:07.507Z,8.80
2018-03-29T00:19:34.962Z,8.70
2018-03-29T00:22:02.421Z,8.70
2018-03-29T00:24:29.897Z,8.70
2018-03-29T00:26:57.339Z,8.70
2018-03-29T00:29:24.792Z,8.70
2018-03-29T00:31:52.252Z,8.70
2018-03-29T00:34:19.711Z,8.70
2018-03-29T00:36:47.162Z,8.60
2018-03-29T00:39:14.619Z,8.60
2018-03-29T00:41:42.082Z,8.60
2018-03-29T00:44:09.524Z,8.60
2018-03-29T00:46:37.745Z,8.50
2018-03-29T00:49:05.203Z,8.50
2018-03-29T00:51:32.682Z,8.40
2018-03-29T00:54:00.130Z,8.40
2018-03-29T00:56:27.592Z,8.40
2018-03-29T00:58:55.042Z,8.40
2018-03-29T01:01:22.507Z,8.40
2018-03-29T01:03:49.967Z,8.40
2018-03-29T01:06:17.437Z,8.30
2018-03-29T01:08:44.873Z,8.30
2018-03-29T01:11:12.351Z,8.20
2018-03-29T01:13:39.797Z,8.20
2018-03-29T01:16:07.245Z,8.10
2018-03-29T01:18:34.716Z,8.10
2018-03-29T01:21:02.167Z,8.00
2018-03-29T01:23:29.636Z,7.90
2018-03-29T01:25:57.387Z,7.70
2018-03-29T01:28:24.854Z,7.60
2018-03-29T01:30:52.352Z,7.50
2018-03-29T01:33:19.841Z,7.40
2018-03-29T01:35:47.291Z,7.30
2018-03-29T01:38:14.764Z,7.30
2018-03-29T01:40:42.235Z,7.30
2018-03-29T01:43:10.479Z,7.30
2018-03-29T01:45:37.968Z,7.30
2018-03-29T01:48:05.426Z,7.40
2018-03-29T01:50:32.903Z,7.30
2018-03-29T01:53:00.385Z,7.30
2018-03-29T01:55:27.862Z,7.30
2018-03-29T01:57:55.327Z,7.20
2018-03-29T02:00:22.802Z,7.20
2018-03-29T02:02:50.270Z,7.30
2018-03-29T02:05:17.731Z,7.30
2018-03-29T02:07:46.035Z,7.40
2018-03-29T02:10:13.426Z,7.40
2018-03-29T02:12:40.884Z,7.40
2018-03-29T02:15:08.350Z,7.40
2018-03-29T02:17:35.794Z,7.40
2018-03-29T02:20:03.275Z,7.40
2018-03-29T02:22:31.362Z,7.40
2018-03-29T02:24:58.820Z,7.50
2018-03-29T02:27:26.274Z,7.50
2018-03-29T02:29:53.727Z,7.50
2018-03-29T02:32:21.190Z,7.50
2018-03-29T02:34:48.649Z,7.40
2018-03-29T02:37:16.107Z,7.50
2018-03-29T02:39:43.564Z,7.50
2018-03-29T02:42:11.029Z,7.40
2018-03-29T02:44:38.481Z,7.40
2018-03-29T02:47:05.933Z,7.50
2018-03-29T02:49:33.409Z,7.50
2018-03-29T02:52:00.843Z,7.50
2018-03-29T02:54:28.298Z,7.50
2018-03-29T02:56:55.755Z,7.50
2018-03-29T02:59:23.206Z,7.50
2018-03-29T03:01:50.684Z,7.60
2018-03-29T03:04:18.177Z,7.60
2018-03-29T03:06:45.631Z,7.60
2018-03-29T03:09:13.090Z,7.70
2018-03-29T03:11:40.570Z,7.70
2018-03-29T03:14:08.027Z,7.70
2018-03-29T03:16:35.515Z,7.70
2018-03-29T03:19:03.739Z,7.60
2018-03-29T03:21:31.189Z,7.60
2018-03-29T03:23:58.650Z,7.60
2018-03-29T03:26:26.126Z,7.70
2018-03-29T03:28:53.605Z,7.70
2018-03-29T03:31:21.077Z,7.70
2018-03-29T03:33:48.556Z,7.70
2018-03-29T03:36:16.009Z,7.60
2018-03-29T03:38:43.454Z,7.70
2018-03-29T03:41:10.915Z,7.70
2018-03-29T03:43:38.366Z,7.70
2018-03-29T03:46:05.825Z,7.70
2018-03-29T03:48:33.274Z,7.80
2018-03-29T03:51:01.170Z,7.80
2018-03-29T03:53:29.367Z,7.90
2018-03-29T03:55:56.827Z,7.80
2018-03-29T03:58:24.345Z,7.80
2018-03-29T04:00:51.810Z,7.80
2018-03-29T04:03:19.263Z,7.90
2018-03-29T04:05:46.729Z,7.90
2018-03-29T04:08:14.189Z,7.90
2018-03-29T04:10:41.649Z,7.90
2018-03-29T04:13:09.099Z,8.00
2018-03-29T04:15:36.542Z,7.90
2018-03-29T04:18:04.041Z,8.00
2018-03-29T04:20:31.497Z,8.00
2018-03-29T04:22:58.957Z,8.00
2018-03-29T04:25:26.414Z,8.00
2018-03-29T04:27:53.872Z,8.10
2018-03-29T04:30:22.113Z,8.00
2018-03-29T04:32:49.605Z,8.00
2018-03-29T04:35:17.041Z,8.00
2018-03-29T04:37:44.510Z,8.00
2018-03-29T04:40:12.031Z,8.00
2018-03-29T04:42:39.532Z,8.00
2018-03-29T04:45:07.095Z,8.00
2018-03-29T04:47:34.644Z,8.00
2018-03-29T04:50:02.128Z,8.10
2018-03-29T04:52:29.604Z,8.00
2018-03-29T04:54:59.292Z,8.00
2018-03-29T04:57:26.794Z,8.10
2018-03-29T04:59:54.389Z,8.10
2018-03-29T05:02:21.778Z,8.10
2018-03-29T05:04:50.110Z,8.10
2018-03-29T05:07:17.719Z,8.00
2018-03-29T05:09:45.244Z,8.00
2018-03-29T05:12:13.555Z,8.00
2018-03-29T05:14:41.089Z,8.00
2018-03-29T05:17:08.612Z,8.00
2018-03-29T05:19:36.168Z,8.00
2018-03-29T05:22:03.735Z,8.00
2018-03-29T05:24:31.433Z,8.00
2018-03-29T05:26:58.986Z,8.00
2018-03-29T05:29:26.451Z,8.00
2018-03-29T05:31:54.006Z,8.00
2018-03-29T05:34:21.550Z,8.00
2018-03-29T05:36:50.207Z,8.10
2018-03-29T05:39:17.763Z,8.10
2018-03-29T05:41:45.318Z,8.10
2018-03-29T05:44:12.925Z,8.10
2018-03-29T05:46:40.575Z,8.10
2018-03-29T05:49:08.128Z,8.10
2018-03-29T05:51:35.655Z,8.10
2018-03-29T05:54:03.115Z,8.10
2018-03-29T05:56:30.647Z,8.20
2018-03-29T05:58:58.958Z,8.20
2018-03-29T06:01:26.535Z,8.20
2018-03-29T06:03:54.950Z,8.20
2018-03-29T06:06:22.526Z,8.20
2018-03-29T06:08:50.064Z,8.20
2018-03-29T06:11:18.410Z,8.40
2018-03-29T06:13:45.973Z,8.30
2018-03-29T06:16:17.345Z,8.40
2018-03-29T06:18:44.940Z,8.40
2018-03-29T06:21:12.454Z,8.30
2018-03-29T06:23:40.003Z,8.30
2018-03-29T06:26:07.561Z,8.30
2018-03-29T06:28:35.031Z,8.30
2018-03-29T06:31:02.717Z,8.30
2018-03-29T06:33:30.982Z,8.30
2018-03-29T06:35:58.516Z,8.30
2018-03-29T06:38:26.128Z,8.40
2018-03-29T06:40:53.796Z,8.40
2018-03-29T06:43:21.372Z,8.40
2018-03-29T06:45:48.935Z,8.40
2018-03-29T06:48:16.473Z,8.40
2018-03-29T06:50:44.042Z,8.40
2018-03-29T06:53:11.537Z,8.40
2018-03-29T06:55:39.040Z,8.50
2018-03-29T06:58:06.655Z,8.50
2018-03-29T07:00:34.183Z,8.50
2018-03-29T07:03:01.719Z,8.60
2018-03-29T07:05:29.232Z,8.60
2018-03-29T07:07:56.877Z,8.60
2018-03-29T07:10:25.344Z,8.50
2018-03-29T07:12:52.857Z,8.50
2018-03-29T07:15:21.167Z,8.60
2018-03-29T07:17:48.630Z,8.50
2018-03-29T07:20:16.150Z,8.60
2018-03-29T07:22:43.780Z,8.60
2018-03-29T07:25:11.392Z,8.70
2018-03-29T07:27:38.964Z,8.70
2018-03-29T07:30:06.496Z,8.70
2018-03-29T07:32:33.961Z,8.70
2018-03-29T07:35:01.435Z,8.70
2018-03-29T07:37:28.899Z,8.70
2018-03-29T07:39:56.434Z,8.70
2018-03-29T07:42:23.959Z,8.70
2018-03-29T07:44:51.594Z,8.70
2018-03-29T07:47:19.172Z,8.70
2018-03-29T07:49:46.731Z,8.70
2018-03-29T07:52:14.923Z,8.80
2018-03-29T07:54:44.188Z,8.90
2018-03-29T07:57:11.666Z,8.80
2018-03-29T07:59:40.019Z,8.90
2018-03-29T08:02:07.494Z,9.00
2018-03-29T08:04:35.108Z,8.90
2018-03-29T08:07:02.819Z,9.00
2018-03-29T08:09:30.743Z,8.90
2018-03-29T08:11:58.262Z,8.90
2018-03-29T08:14:26.546Z,9.00
2018-03-29T08:16:54.072Z,9.00
2018-03-29T08:19:21.611Z,9.00
2018-03-29T08:21:49.096Z,9.00
2018-03-29T08:24:16.796Z,9.10
2018-03-29T08:26:45.052Z,9.10
2018-03-29T08:29:12.587Z,9.10
2018-03-29T08:31:40.044Z,9.10
2018-03-29T08:34:07.552Z,9.10
2018-03-29T08:36:35.098Z,9.20
2018-03-29T08:39:02.693Z,9.20
2018-03-29T08:41:30.281Z,9.20
2018-03-29T08:43:57.847Z,9.20
2018-03-29T08:46:25.381Z,9.30
2018-03-29T08:48:52.953Z,9.20
2018-03-29T08:51:20.507Z,9.20
2018-03-29T08:53:48.031Z,9.10
2018-03-29T08:56:15.606Z,9.00
2018-03-29T08:58:43.128Z,9.00
2018-03-29T09:01:10.684Z,9.00
2018-03-29T09:03:38.178Z,9.00
2018-03-29T09:06:05.731Z,9.00
2018-03-29T09:08:33.238Z,9.00
2018-03-29T09:11:01.610Z,9.20
2018-03-29T09:13:29.194Z,9.20
2018-03-29T09:15:56.744Z,9.30
2018-03-29T09:18:24.216Z,9.40
2018-03-29T09:20:52.543Z,9.40
2018-03-29T09:23:20.089Z,9.40
2018-03-29T09:25:47.615Z,9.40
2018-03-29T09:28:15.200Z,9.50
2018-03-29T09:30:42.768Z,9.50
2018-03-29T09:33:10.380Z,9.60
2018-03-29T09:35:38.751Z,9.60
2018-03-29T09:38:06.239Z,9.60
2018-03-29T09:40:33.714Z,9.60
2018-03-29T09:43:01.186Z,9.60
2018-03-29T09:45:28.785Z,9.50
2018-03-29T09:47:56.372Z,9.50
2018-03-29T09:50:23.850Z,9.50
2018-03-29T09:52:51.372Z,9.50
2018-03-29T09:55:18.920Z,9.50
2018-03-29T09:57:46.474Z,9.40
2018-03-29T10:00:14.005Z,9.40
2018-03-29T10:02:47.066Z,9.40
2018-03-29T10:05:14.630Z,9.40
2018-03-29T10:07:42.110Z,9.40
2018-03-29T10:10:09.657Z,9.40
2018-03-29T10:12:37.178Z,9.40
2018-03-29T10:15:04.858Z,9.50
2018-03-29T10:17:32.410Z,9.50
2018-03-29T10:19:59.907Z,9.60
2018-03-29T10:22:27.391Z,9.80
2018-03-29T10:24:55.092Z,9.80
2018-03-29T10:27:23.565Z,9.80
2018-03-29T10:29:51.256Z,9.90
2018-03-29T10:32:18.799Z,9.80
2018-03-29T10:34:46.366Z,9.70
2018-03-29T10:37:13.944Z,9.60
2018-03-29T10:39:41.533Z,9.70
2018-03-29T10:42:09.009Z,9.70
2018-03-29T10:44:36.586Z,9.70
2018-03-29T10:47:04.124Z,9.70
2018-03-29T10:49:31.649Z,9.70
2018-03-29T10:51:59.166Z,9.80
2018-03-29T10:54:26.716Z,9.90
2018-03-29T10:56:54.250Z,10.00
2018-03-29T10:59:21.830Z,10.00
2018-03-29T11:01:49.335Z,10.00
2018-03-29T11:04:16.876Z,10.10
2018-03-29T11:06:44.359Z,10.10
2018-03-29T11:09:11.886Z,10.10
2018-03-29T11:11:39.418Z,10.20
2018-03-29T11:14:06.875Z,10.20
2018-03-29T11:16:34.462Z,10.20
2018-03-29T11:19:01.991Z,10.20
2018-03-29T11:21:29.535Z,10.20
2018-03-29T11:23:57.179Z,10.30
2018-03-29T11:26:24.686Z,10.30
2018-03-29T11:28:52.656Z,10.30
2018-03-29T11:31:20.249Z,10.40
2018-03-29T11:33:47.775Z,10.60
2018-03-29T11:36:15.235Z,10.70
2018-03-29T11:38:42.728Z,10.70
2018-03-29T11:41:11.047Z,10.70
2018-03-29T11:43:38.617Z,10.60
2018-03-29T11:46:06.125Z,10.60
2018-03-29T11:48:33.762Z,10.60
2018-03-29T11:51:01.345Z,10.60
2018-03-29T11:53:28.855Z,10.60
2018-03-29T11:55:56.427Z,10.60
2018-03-29T11:58:24.029Z,10.50
2018-03-29T12:00:51.726Z,10.50
2018-03-29T12:03:20.070Z,10.60
2018-03-29T12:05:48.409Z,10.80
2018-03-29T12:08:15.892Z,10.80
2018-03-29T12:10:44.326Z,10.90
2018-03-29T12:13:11.807Z,10.80
2018-03-29T12:15:39.441Z,10.80
2018-03-29T12:18:07.168Z,10.80
2018-03-29T12:20:35.483Z,11.00
2018-03-29T12:23:03.000Z,11.00
2018-03-29T12:25:31.223Z,11.20
2018-03-29T12:27:58.688Z,11.20
2018-03-29T12:30:26.139Z,11.20
2018-03-29T12:32:53.619Z,11.00
2018-03-29T12:35:21.073Z,11.10
2018-03-29T12:37:48.530Z,11.10
2018-03-29T12:40:15.990Z,11.10
2018-03-29T12:42:43.449Z,11.10
2018-03-29T12:45:10.903Z,11.10
2018-03-29T12:47:39.235Z,11.10
2018-03-29T12:50:06.683Z,11.10
2018-03-29T12:52:34.151Z,11.00
2018-03-29T12:55:13.198Z,11.00
2018-03-29T12:58:05.379Z,10.90
2018-03-29T13:00:32.832Z,10.80
2018-03-29T13:03:00.318Z,10.90
2018-03-29T13:05:27.765Z,10.90
2018-03-29T13:07:55.229Z,11.00
2018-03-29T13:10:22.725Z,11.10
2018-03-29T13:12:50.153Z,11.30
2018-03-29T13:15:17.615Z,11.50
2018-03-29T13:17:45.062Z,11.50
2018-03-29T13:20:12.552Z,11.70
2018-03-29T13:22:39.988Z,11.80
2018-03-29T13:25:07.489Z,11.80
2018-03-29T13:27:34.908Z,11.80
2018-03-29T13:30:02.375Z,11.90
2018-03-29T13:32:29.831Z,11.90
2018-03-29T13:34:57.289Z,11.90
2018-03-29T13:37:24.739Z,11.90
2018-03-29T13:39:52.214Z,11.80
2018-03-29T13:42:19.659Z,11.90
2018-03-29T13:44:47.112Z,11.80
2018-03-29T13:47:15.347Z,11.80
2018-03-29T13:49:42.803Z,11.80
2018-03-29T13:52:10.271Z,11.90
2018-03-29T13:54:37.727Z,11.90
2018-03-29T13:57:05.191Z,12.00
2018-03-29T13:59:33.470Z,12.20
2018-03-29T14:02:00.932Z,12.50
2018-03-29T14:04:28.378Z,12.60
2018-03-29T14:06:55.843Z,12.50
2018-03-29T14:09:23.295Z,12.50
2018-03-29T14:11:51.592Z,12.60
2018-03-29T14:14:19.047Z,12.60
2018-03-29T14:16:46.505Z,12.60
2018-03-29T14:19:13.958Z,12.50
2018-03-29T14:21:41.414Z,12.50
2018-03-29T14:24:08.862Z,12.50
2018-03-29T14:26:36.341Z,12.40
2018-03-29T14:29:03.799Z,12.30
2018-03-29T14:31:31.244Z,12.10
2018-03-29T14:33:58.698Z,12.00
2018-03-29T14:36:26.170Z,12.00
2018-03-29T14:38:53.626Z,12.00
2018-03-29T14:41:21.082Z,12.00
2018-03-29T14:43:48.570Z,12.00
2018-03-29T14:46:16.030Z,12.00
2018-03-29T14:48:44.259Z,12.00
2018-03-29T14:51:11.705Z,12.00
2018-03-29T14:53:39.175Z,12.00
2018-03-29T14:56:06.643Z,12.00
2018-03-29T14:58:34.111Z,12.00
2018-03-29T15:01:01.776Z,12.00
2018-03-29T15:03:29.290Z,11.90
2018-03-29T15:05:56.812Z,11.90
2018-03-29T15:08:24.406Z,11.90
2018-03-29T15:10:51.958Z,11.90
2018-03-29T15:13:19.531Z,11.90
2018-03-29T15:15:47.011Z,11.80
2018-03-29T15:18:14.506Z,11.80
2018-03-29T15:20:43.598Z,11.80
2018-03-29T15:23:11.835Z,11.80
2018-03-29T15:25:39.356Z,11.70
2018-03-29T15:28:06.834Z,11.90
2018-03-29T15:30:34.355Z,12.00
2018-03-29T15:33:01.838Z,12.10
2018-03-29T15:35:29.348Z,12.10
2018-03-29T15:37:57.670Z,12.10
2018-03-29T15:40:25.256Z,12.00
2018-03-29T15:42:52.720Z,12.00
2018-03-29T15:45:20.211Z,11.90
2018-03-29T15:47:48.478Z,12.00
2018-03-29T15:50:15.953Z,11.90
2018-03-29T15:52:43.451Z,12.00
2018-03-29T15:55:10.923Z,11.90
2018-03-29T15:57:38.386Z,11.90
2018-03-29T16:00:05.906Z,11.80
2018-03-29T16:02:33.398Z,11.80
2018-03-29T16:05:00.917Z,11.80
2018-03-29T16:07:28.402Z,11.80
2018-03-29T16:09:55.907Z,11.80
2018-03-29T16:12:23.455Z,11.80
2018-03-29T16:14:50.945Z,11.80
2018-03-29T16:17:18.449Z,11.70
2018-03-29T16:19:45.910Z,11.70
2018-03-29T16:22:13.433Z,11.70
2018-03-29T16:24:40.931Z,11.70
2018-03-29T16:27:08.442Z,11.70
2018-03-29T16:29:35.915Z,11.70
2018-03-29T16:32:03.468Z,11.70
2018-03-29T16:34:30.971Z,11.70
2018-03-29T16:36:58.472Z,11.70
2018-03-29T16:39:25.983Z,11.70
2018-03-29T16:41:53.483Z,11.60
2018-03-29T16:44:21.016Z,11.60
2018-03-29T16:46:48.486Z,11.60
2018-03-29T16:49:16.790Z,11.60
2018-03-29T16:51:44.384Z,11.60
2018-03-29T16:54:11.951Z,11.60
2018-03-29T16:56:40.147Z,11.60
2018-03-29T16:59:07.746Z,11.60
2018-03-29T17:01:35.223Z,11.60
2018-03-29T17:04:02.793Z,11.60
2018-03-29T17:06:30.309Z,11.60
2018-03-29T17:08:57.871Z,11.60
2018-03-29T17:11:25.430Z,11.60
2018-03-29T17:13:53.649Z,11.60
2018-03-29T17:16:21.212Z,11.60
2018-03-29T17:18:48.796Z,11.60
2018-03-29T17:21:17.107Z,11.60
2018-03-29T17:23:45.084Z,11.60
2018-03-29T17:26:12.601Z,11.50
2018-03-29T17:28:40.098Z,11.40
2018-03-29T17:31:07.637Z,11.40
2018-03-29T17:33:35.227Z,11.30
2018-03-29T17:36:02.861Z,11.30
2018-03-29T17:38:30.409Z,11.20
2018-03-29T17:40:57.964Z,11.20
2018-03-29T17:43:25.573Z,11.20
2018-03-29T17:45:53.122Z,11.20
2018-03-29T17:48:20.774Z,11.10
2018-03-29T17:50:48.368Z,11.10
2018-03-29T17:53:15.927Z,11.00
2018-03-29T17:55:43.486Z,11.00
2018-03-29T17:58:11.909Z,11.00
2018-03-29T18:00:39.487Z,10.90
2018-03-29T18:03:08.557Z,10.90
2018-03-29T18:05:36.115Z,10.90
2018-03-29T18:08:04.486Z,10.80
2018-03-29T18:10:32.048Z,10.80
2018-03-29T18:12:59.689Z,10.80
2018-03-29T18:15:27.394Z,10.70
2018-03-29T18:17:54.890Z,10.60
2018-03-29T18:20:22.615Z,10.60
2018-03-29T18:22:50.220Z,10.50
2018-03-29T18:25:17.860Z,10.50
2018-03-29T18:27:45.397Z,10.50
2018-03-29T18:30:13.121Z,10.40
2018-03-29T18:32:40.698Z,10.40
2018-03-29T18:35:08.199Z,10.30
2018-03-29T18:37:35.731Z,10.20
2018-03-29T18:40:03.215Z,10.20
2018-03-29T18:42:30.691Z,10.10
2018-03-29T18:44:58.165Z,10.10
2018-03-29T18:47:25.644Z,10.00
2018-03-29T18:49:53.137Z,10.00
2018-03-29T18:52:20.636Z,9.90
2018-03-29T18:54:48.163Z,9.90
2018-03-29T18:57:15.665Z,9.90
2018-03-29T18:59:43.138Z,9.80
2018-03-29T19:02:10.629Z,9.80
2018-03-29T19:04:38.098Z,9.70
2018-03-29T19:07:05.568Z,9.70
2018-03-29T19:09:33.042Z,9.60
2018-03-29T19:12:00.528Z,9.60
2018-03-29T19:14:28.028Z,9.60
2018-03-29T19:16:55.513Z,9.50
2018-03-29T19:19:22.977Z,9.40
2018-03-29T19:21:50.495Z,9.40
2018-03-29T19:24:17.986Z,9.30
2018-03-29T19:26:45.497Z,9.30
2018-03-29T19:29:12.999Z,9.30
2018-03-29T19:31:40.465Z,9.20
2018-03-29T19:34:08.719Z,9.10
2018-03-29T19:36:36.197Z,9.10
2018-03-29T19:39:05.447Z,9.40
2018-03-29T19:41:32.978Z,9.40
2018-03-29T19:44:00.450Z,9.20
2018-03-29T19:46:27.996Z,9.10
2018-03-29T19:48:55.533Z,9.00
2018-03-29T19:51:23.782Z,8.80
2018-03-29T19:53:51.269Z,8.80
2018-03-29T19:56:18.743Z,8.70
2018-03-29T19:58:46.241Z,8.60
2018-03-29T20:01:13.752Z,8.50
2018-03-29T20:03:41.218Z,8.50
2018-03-29T20:06:08.685Z,8.50
2018-03-29T20:08:36.179Z,8.40
2018-03-29T20:11:03.678Z,8.40
2018-03-29T20:13:31.161Z,8.40
2018-03-29T20:15:58.685Z,8.40
2018-03-29T20:18:26.141Z,8.30
2018-03-29T20:20:54.468Z,8.20
2018-03-29T20:23:21.934Z,8.20
2018-03-29T20:25:49.413Z,8.10
2018-03-29T20:28:16.886Z,8.10
2018-03-29T20:30:44.359Z,8.10
2018-03-29T20:33:12.605Z,8.00
2018-03-29T20:35:40.084Z,8.00
2018-03-29T20:38:08.325Z,7.90
2018-03-29T20:40:35.821Z,7.90
2018-03-29T20:43:03.388Z,7.90
2018-03-29T20:45:30.875Z,7.80
2018-03-29T20:47:58.375Z,7.80
2018-03-29T20:50:25.865Z,7.70
2018-03-29T20:52:54.141Z,7.60
2018-03-29T20:55:22.387Z,7.60
2018-03-29T20:57:49.940Z,7.60
2018-03-29T21:00:17.499Z,7.60
2018-03-29T21:02:45.024Z,7.50
2018-03-29T21:05:12.527Z,7.60
2018-03-29T21:07:40.026Z,7.50
2018-03-29T21:10:07.522Z,7.50
2018-03-29T21:12:35.001Z,7.40
2018-03-29T21:15:02.475Z,7.40
2018-03-29T21:17:29.964Z,7.40
2018-03-29T21:19:57.473Z,7.40
2018-03-29T21:22:24.998Z,7.30
2018-03-29T21:24:52.502Z,7.20
2018-03-29T21:27:20.020Z,7.30
2018-03-29T21:29:47.572Z,7.20
2018-03-29T21:32:15.071Z,7.20
2018-03-29T21:34:43.356Z,7.50
2018-03-29T21:37:10.827Z,7.50
2018-03-29T21:39:38.312Z,7.30
2018-03-29T21:42:05.792Z,7.20
2018-03-29T21:44:33.316Z,7.20
2018-03-29T21:47:00.788Z,7.10
2018-03-29T21:49:28.318Z,7.00
2018-03-29T21:51:55.801Z,7.00
2018-03-29T21:54:23.292Z,7.00
2018-03-29T21:56:50.811Z,6.90
2018-03-29T21:59:18.287Z,6.90
2018-03-29T22:01:45.786Z,6.80
2018-03-29T22:04:14.055Z,6.80
2018-03-29T22:06:41.519Z,6.80
2018-03-29T22:09:08.976Z,6.80
2018-03-29T22:11:36.423Z,6.70
2018-03-29T22:14:03.891Z,6.70
2018-03-29T22:16:31.351Z,6.70
2018-03-29T22:18:58.806Z,6.60
2018-03-29T22:21:26.267Z,6.60
2018-03-29T22:23:53.717Z,6.60
2018-03-29T22:26:21.237Z,6.50
2018-03-29T22:28:48.691Z,6.40
2018-03-29T22:31:16.175Z,6.40
2018-03-29T22:33:43.642Z,6.40
2018-03-29T22:36:11.883Z,6.40
2018-03-29T22:38:39.343Z,6.40
2018-03-29T22:41:06.818Z,6.30
2018-03-29T22:43:34.280Z,6.30
2018-03-29T22:46:01.739Z,6.30
2018-03-29T22:48:29.177Z,6.30
2018-03-29T22:50:56.645Z,6.20
2018-03-29T22:53:24.107Z,6.20
2018-03-29T22:55:51.563Z,6.20
2018-03-29T22:58:19.022Z,6.20
2018-03-29T23:00:47.242Z,6.10
2018-03-29T23:03:14.707Z,6.10
2018-03-29T23:05:42.158Z,6.10
2018-03-29T23:08:09.619Z,6.10
2018-03-29T23:10:37.843Z,6.00
2018-03-29T23:13:05.307Z,6.00
2018-03-29T23:15:32.763Z,6.00
2018-03-29T23:18:00.218Z,5.90
2018-03-29T23:20:27.695Z,5.90
2018-03-29T23:22:55.179Z,5.80
2018-03-29T23:25:22.645Z,5.80
2018-03-29T23:27:50.094Z,5.80
2018-03-29T23:30:17.558Z,5.80
2018-03-29T23:32:45.017Z,5.80
2018-03-29T23:35:12.480Z,5.70
2018-03-29T23:37:39.940Z,5.80
2018-03-29T23:40:07.407Z,5.70
2018-03-29T23:42:34.866Z,5.70
2018-03-29T23:45:02.353Z,5.70
2018-03-29T23:47:30.571Z,5.60
2018-03-29T23:49:58.042Z,5.60
2018-03-29T23:52:25.531Z,5.60
2018-03-29T23:54:52.994Z,5.50
2018-03-29T23:57:20.459Z,5.40
2018-03-29T23:59:47.911Z,5.40
